sensor_id;sensor_type;location;lat;lon;timestamp;temperature;humidity
42663;DHT22;44330;51.360;6.686;2022-11-02T00:02:13;13.70;1.90
42663;DHT22;44330;51.360;6.686;2022-11-02T00:04:39;13.70;3.90
42663;DHT22;44330;51.360;6.686;2022-11-02T00:07:04;13.70;7.40
42663;DHT22;44330;51.360;6.686;2022-11-02T00:09:30;13.60;21.80
42663;DHT22;44330;51.360;6.686;2022-11-02T00:11:55;13.60;27.30
42663;DHT22;44330;51.360;6.686;2022-11-02T00:14:21;13.50;30.00
42663;DHT22;44330;51.360;6.686;2022-11-02T00:16:47;13.50;29.00
42663;DHT22;44330;51.360;6.686;2022-11-02T00:19:12;13.50;28.80
42663;DHT22;44330;51.360;6.686;2022-11-02T00:21:39;13.40;31.10
42663;DHT22;44330;51.360;6.686;2022-11-02T00:24:05;13.40;30.50
42663;DHT22;44330;51.360;6.686;2022-11-02T00:26:32;13.30;34.10
42663;DHT22;44330;51.360;6.686;2022-11-02T00:28:59;13.30;30.80
42663;DHT22;44330;51.360;6.686;2022-11-02T00:31:25;13.40;28.90
42663;DHT22;44330;51.360;6.686;2022-11-02T00:33:50;13.30;31.00
42663;DHT22;44330;51.360;6.686;2022-11-02T00:36:16;13.40;29.50
42663;DHT22;44330;51.360;6.686;2022-11-02T00:38:42;13.40;30.00
42663;DHT22;44330;51.360;6.686;2022-11-02T00:41:07;13.40;29.80
42663;DHT22;44330;51.360;6.686;2022-11-02T00:43:33;13.40;30.60
42663;DHT22;44330;51.360;6.686;2022-11-02T00:45:59;13.30;31.50
42663;DHT22;44330;51.360;6.686;2022-11-02T00:48:25;13.40;30.10
42663;DHT22;44330;51.360;6.686;2022-11-02T00:50:51;13.40;32.30
42663;DHT22;44330;51.360;6.686;2022-11-02T00:53:17;13.50;30.20
42663;DHT22;44330;51.360;6.686;2022-11-02T00:55:42;13.60;23.70
42663;DHT22;44330;51.360;6.686;2022-11-02T00:58:08;13.70;18.90
42663;DHT22;44330;51.360;6.686;2022-11-02T01:00:34;13.80;14.70
42663;DHT22;44330;51.360;6.686;2022-11-02T01:03:00;13.90;10.80
42663;DHT22;44330;51.360;6.686;2022-11-02T01:05:26;13.90;7.90
42663;DHT22;44330;51.360;6.686;2022-11-02T01:07:52;14.10;2.70
42663;DHT22;44330;51.360;6.686;2022-11-02T01:10:17;14.10;1.00
42663;DHT22;44330;51.360;6.686;2022-11-02T01:12:43;14.10;1.00
42663;DHT22;44330;51.360;6.686;2022-11-02T01:15:09;14.10;1.00
42663;DHT22;44330;51.360;6.686;2022-11-02T01:17:37;14.10;1.00
42663;DHT22;44330;51.360;6.686;2022-11-02T01:20:03;14.10;1.00
42663;DHT22;44330;51.360;6.686;2022-11-02T01:22:30;14.00;2.20
42663;DHT22;44330;51.360;6.686;2022-11-02T01:24:56;14.00;2.70
42663;DHT22;44330;51.360;6.686;2022-11-02T01:27:21;14.00;3.00
42663;DHT22;44330;51.360;6.686;2022-11-02T01:29:47;13.90;6.50
42663;DHT22;44330;51.360;6.686;2022-11-02T01:32:12;13.80;7.30
42663;DHT22;44330;51.360;6.686;2022-11-02T01:34:38;13.90;7.00
42663;DHT22;44330;51.360;6.686;2022-11-02T01:37:04;13.90;4.10
42663;DHT22;44330;51.360;6.686;2022-11-02T01:39:29;13.80;6.40
42663;DHT22;44330;51.360;6.686;2022-11-02T01:41:55;13.80;10.70
42663;DHT22;44330;51.360;6.686;2022-11-02T01:44:32;13.70;12.80
42663;DHT22;44330;51.360;6.686;2022-11-02T01:47:07;13.80;11.90
42663;DHT22;44330;51.360;6.686;2022-11-02T01:49:39;13.80;12.10
42663;DHT22;44330;51.360;6.686;2022-11-02T01:54:38;13.80;12.90
42663;DHT22;44330;51.360;6.686;2022-11-02T01:57:07;13.80;14.10
42663;DHT22;44330;51.360;6.686;2022-11-02T01:59:47;13.80;14.60
42663;DHT22;44330;51.360;6.686;2022-11-02T02:02:17;13.70;17.60
42663;DHT22;44330;51.360;6.686;2022-11-02T02:04:47;13.70;16.10
42663;DHT22;44330;51.360;6.686;2022-11-02T02:07:14;13.70;15.70
42663;DHT22;44330;51.360;6.686;2022-11-02T02:09:40;13.70;17.50
42663;DHT22;44330;51.360;6.686;2022-11-02T02:12:06;13.60;21.00
42663;DHT22;44330;51.360;6.686;2022-11-02T02:14:32;13.60;24.40
42663;DHT22;44330;51.360;6.686;2022-11-02T02:17:23;13.60;23.60
42663;DHT22;44330;51.360;6.686;2022-11-02T02:20:18;13.60;23.80
42663;DHT22;44330;51.360;6.686;2022-11-02T02:28:57;13.50;27.30
42663;DHT22;44330;51.360;6.686;2022-11-02T02:31:35;13.50;28.10
42663;DHT22;44330;51.360;6.686;2022-11-02T02:36:44;13.60;25.40
42663;DHT22;44330;51.360;6.686;2022-11-02T02:39:25;13.60;24.30
42663;DHT22;44330;51.360;6.686;2022-11-02T02:42:06;13.70;24.80
42663;DHT22;44330;51.360;6.686;2022-11-02T02:44:37;13.70;23.30
42663;DHT22;44330;51.360;6.686;2022-11-02T02:47:10;13.70;22.50
42663;DHT22;44330;51.360;6.686;2022-11-02T02:49:47;13.70;23.50
42663;DHT22;44330;51.360;6.686;2022-11-02T02:52:15;13.70;22.20
42663;DHT22;44330;51.360;6.686;2022-11-02T02:54:44;13.70;22.50
42663;DHT22;44330;51.360;6.686;2022-11-02T02:57:16;13.70;21.50
42663;DHT22;44330;51.360;6.686;2022-11-02T02:59:45;13.80;16.70
42663;DHT22;44330;51.360;6.686;2022-11-02T03:02:16;13.80;16.40
42663;DHT22;44330;51.360;6.686;2022-11-02T03:04:43;13.70;16.30
42663;DHT22;44330;51.360;6.686;2022-11-02T03:07:11;13.70;19.00
42663;DHT22;44330;51.360;6.686;2022-11-02T03:10:00;13.70;19.10
42663;DHT22;44330;51.360;6.686;2022-11-02T03:13:01;13.60;21.10
42663;DHT22;44330;51.360;6.686;2022-11-02T03:15:29;13.60;20.80
42663;DHT22;44330;51.360;6.686;2022-11-02T03:18:01;13.50;22.60
42663;DHT22;44330;51.360;6.686;2022-11-02T03:20:40;13.50;24.10
42663;DHT22;44330;51.360;6.686;2022-11-02T03:28:59;13.40;24.10
42663;DHT22;44330;51.360;6.686;2022-11-02T03:36:53;13.30;26.90
42663;DHT22;44330;51.360;6.686;2022-11-02T03:39:35;13.30;28.40
42663;DHT22;44330;51.360;6.686;2022-11-02T03:42:02;13.20;28.00
42663;DHT22;44330;51.360;6.686;2022-11-02T03:44:29;13.30;25.80
42663;DHT22;44330;51.360;6.686;2022-11-02T03:46:58;13.30;23.30
42663;DHT22;44330;51.360;6.686;2022-11-02T03:49:25;13.30;23.90
42663;DHT22;44330;51.360;6.686;2022-11-02T03:51:52;13.20;26.90
42663;DHT22;44330;51.360;6.686;2022-11-02T03:54:28;13.30;25.20
42663;DHT22;44330;51.360;6.686;2022-11-02T03:56:58;13.30;26.80
42663;DHT22;44330;51.360;6.686;2022-11-02T03:59:27;13.20;30.00
42663;DHT22;44330;51.360;6.686;2022-11-02T04:01:54;13.10;32.60
42663;DHT22;44330;51.360;6.686;2022-11-02T04:04:20;13.10;33.20
42663;DHT22;44330;51.360;6.686;2022-11-02T04:06:47;13.10;31.60
42663;DHT22;44330;51.360;6.686;2022-11-02T04:09:13;13.10;31.30
42663;DHT22;44330;51.360;6.686;2022-11-02T04:11:38;13.00;34.70
42663;DHT22;44330;51.360;6.686;2022-11-02T04:14:22;13.00;34.30
42663;DHT22;44330;51.360;6.686;2022-11-02T04:17:07;13.00;32.20
42663;DHT22;44330;51.360;6.686;2022-11-02T04:19:52;13.10;28.40
42663;DHT22;44330;51.360;6.686;2022-11-02T04:22:18;13.10;27.80
42663;DHT22;44330;51.360;6.686;2022-11-02T04:25:03;13.10;28.00
42663;DHT22;44330;51.360;6.686;2022-11-02T04:27:49;13.00;27.10
42663;DHT22;44330;51.360;6.686;2022-11-02T04:30:18;13.10;24.60
42663;DHT22;44330;51.360;6.686;2022-11-02T04:32:46;13.00;25.80
42663;DHT22;44330;51.360;6.686;2022-11-02T04:35:32;13.00;25.90
42663;DHT22;44330;51.360;6.686;2022-11-02T04:37:59;13.00;24.60
42663;DHT22;44330;51.360;6.686;2022-11-02T04:40:43;13.10;21.70
42663;DHT22;44330;51.360;6.686;2022-11-02T04:43:09;13.10;22.30
42663;DHT22;44330;51.360;6.686;2022-11-02T04:45:35;13.00;22.60
42663;DHT22;44330;51.360;6.686;2022-11-02T04:48:05;13.00;24.10
42663;DHT22;44330;51.360;6.686;2022-11-02T04:50:31;13.00;25.10
42663;DHT22;44330;51.360;6.686;2022-11-02T04:53:01;13.00;25.70
42663;DHT22;44330;51.360;6.686;2022-11-02T04:55:27;13.00;24.20
42663;DHT22;44330;51.360;6.686;2022-11-02T04:57:53;13.00;23.00
42663;DHT22;44330;51.360;6.686;2022-11-02T05:00:19;13.00;22.30
42663;DHT22;44330;51.360;6.686;2022-11-02T05:02:49;12.90;25.80
42663;DHT22;44330;51.360;6.686;2022-11-02T05:05:15;12.90;26.90
42663;DHT22;44330;51.360;6.686;2022-11-02T05:07:42;13.00;23.20
42663;DHT22;44330;51.360;6.686;2022-11-02T05:10:08;13.00;21.10
42663;DHT22;44330;51.360;6.686;2022-11-02T05:12:37;13.00;19.50
42663;DHT22;44330;51.360;6.686;2022-11-02T05:15:03;13.10;17.80
42663;DHT22;44330;51.360;6.686;2022-11-02T05:17:29;13.10;18.60
42663;DHT22;44330;51.360;6.686;2022-11-02T05:19:54;13.10;18.90
42663;DHT22;44330;51.360;6.686;2022-11-02T05:22:20;13.10;17.90
42663;DHT22;44330;51.360;6.686;2022-11-02T05:24:46;13.10;17.50
42663;DHT22;44330;51.360;6.686;2022-11-02T05:27:11;13.10;17.30
42663;DHT22;44330;51.360;6.686;2022-11-02T05:29:37;13.00;19.80
42663;DHT22;44330;51.360;6.686;2022-11-02T05:32:02;12.90;21.10
42663;DHT22;44330;51.360;6.686;2022-11-02T05:34:28;13.00;19.70
42663;DHT22;44330;51.360;6.686;2022-11-02T05:36:53;12.90;19.30
42663;DHT22;44330;51.360;6.686;2022-11-02T05:39:19;12.90;20.50
42663;DHT22;44330;51.360;6.686;2022-11-02T05:41:44;12.90;21.90
42663;DHT22;44330;51.360;6.686;2022-11-02T05:44:10;12.80;20.40
42663;DHT22;44330;51.360;6.686;2022-11-02T05:46:35;12.80;22.50
42663;DHT22;44330;51.360;6.686;2022-11-02T05:49:01;12.80;22.00
42663;DHT22;44330;51.360;6.686;2022-11-02T05:51:27;12.80;22.30
42663;DHT22;44330;51.360;6.686;2022-11-02T05:53:52;12.70;24.90
42663;DHT22;44330;51.360;6.686;2022-11-02T05:56:18;12.70;22.50
42663;DHT22;44330;51.360;6.686;2022-11-02T05:58:43;12.70;21.60
42663;DHT22;44330;51.360;6.686;2022-11-02T06:01:10;12.70;23.60
42663;DHT22;44330;51.360;6.686;2022-11-02T06:03:36;12.60;26.00
42663;DHT22;44330;51.360;6.686;2022-11-02T06:06:04;12.60;25.50
42663;DHT22;44330;51.360;6.686;2022-11-02T06:08:34;12.60;26.00
42663;DHT22;44330;51.360;6.686;2022-11-02T06:11:18;12.60;23.60
42663;DHT22;44330;51.360;6.686;2022-11-02T06:13:43;12.60;23.90
42663;DHT22;44330;51.360;6.686;2022-11-02T06:16:10;12.60;24.00
42663;DHT22;44330;51.360;6.686;2022-11-02T06:18:37;12.60;22.10
42663;DHT22;44330;51.360;6.686;2022-11-02T06:21:03;12.50;24.00
42663;DHT22;44330;51.360;6.686;2022-11-02T06:23:29;12.50;22.20
42663;DHT22;44330;51.360;6.686;2022-11-02T06:25:56;12.50;20.70
42663;DHT22;44330;51.360;6.686;2022-11-02T06:28:22;12.50;22.90
42663;DHT22;44330;51.360;6.686;2022-11-02T06:30:48;12.50;23.10
42663;DHT22;44330;51.360;6.686;2022-11-02T06:33:15;12.50;23.10
42663;DHT22;44330;51.360;6.686;2022-11-02T06:35:49;12.50;23.40
42663;DHT22;44330;51.360;6.686;2022-11-02T06:38:15;12.50;23.30
42663;DHT22;44330;51.360;6.686;2022-11-02T06:40:41;12.50;24.90
42663;DHT22;44330;51.360;6.686;2022-11-02T06:43:07;12.50;21.90
42663;DHT22;44330;51.360;6.686;2022-11-02T06:45:32;12.60;21.60
42663;DHT22;44330;51.360;6.686;2022-11-02T06:47:58;12.60;19.80
42663;DHT22;44330;51.360;6.686;2022-11-02T06:50:24;12.60;18.20
42663;DHT22;44330;51.360;6.686;2022-11-02T06:52:50;12.70;14.40
42663;DHT22;44330;51.360;6.686;2022-11-02T06:55:17;12.70;14.50
42663;DHT22;44330;51.360;6.686;2022-11-02T06:57:43;12.80;14.70
42663;DHT22;44330;51.360;6.686;2022-11-02T07:00:11;12.80;14.00
42663;DHT22;44330;51.360;6.686;2022-11-02T07:02:38;12.70;17.20
42663;DHT22;44330;51.360;6.686;2022-11-02T07:05:04;12.70;14.40
42663;DHT22;44330;51.360;6.686;2022-11-02T07:07:30;12.70;15.80
42663;DHT22;44330;51.360;6.686;2022-11-02T07:09:55;12.70;13.50
42663;DHT22;44330;51.360;6.686;2022-11-02T07:12:21;12.70;19.00
42663;DHT22;44330;51.360;6.686;2022-11-02T07:14:47;12.70;18.50
42663;DHT22;44330;51.360;6.686;2022-11-02T07:17:12;12.70;19.10
42663;DHT22;44330;51.360;6.686;2022-11-02T07:19:38;12.80;13.60
42663;DHT22;44330;51.360;6.686;2022-11-02T07:22:03;12.70;15.00
42663;DHT22;44330;51.360;6.686;2022-11-02T07:24:29;12.80;14.90
42663;DHT22;44330;51.360;6.686;2022-11-02T07:27:15;12.80;11.20
42663;DHT22;44330;51.360;6.686;2022-11-02T07:29:44;12.80;14.00
42663;DHT22;44330;51.360;6.686;2022-11-02T07:32:10;12.70;14.20
42663;DHT22;44330;51.360;6.686;2022-11-02T07:34:35;12.70;15.30
42663;DHT22;44330;51.360;6.686;2022-11-02T07:37:01;12.70;12.30
42663;DHT22;44330;51.360;6.686;2022-11-02T07:39:26;12.80;12.50
42663;DHT22;44330;51.360;6.686;2022-11-02T07:41:51;12.70;12.20
42663;DHT22;44330;51.360;6.686;2022-11-02T07:44:17;12.80;5.60
42663;DHT22;44330;51.360;6.686;2022-11-02T07:46:42;12.80;6.40
42663;DHT22;44330;51.360;6.686;2022-11-02T07:49:08;12.80;4.60
42663;DHT22;44330;51.360;6.686;2022-11-02T07:51:37;12.80;11.10
42663;DHT22;44330;51.360;6.686;2022-11-02T07:54:02;12.80;7.90
42663;DHT22;44330;51.360;6.686;2022-11-02T07:56:28;12.80;4.10
42663;DHT22;44330;51.360;6.686;2022-11-02T07:58:53;12.90;3.50
42663;DHT22;44330;51.360;6.686;2022-11-02T08:01:19;12.90;1.90
42663;DHT22;44330;51.360;6.686;2022-11-02T08:03:44;13.00;1.00
42663;DHT22;44330;51.360;6.686;2022-11-02T08:06:10;13.00;1.00
42663;DHT22;44330;51.360;6.686;2022-11-02T08:08:36;13.10;1.00
42663;DHT22;44330;51.360;6.686;2022-11-02T08:11:06;13.00;1.00
42663;DHT22;44330;51.360;6.686;2022-11-02T08:13:32;13.10;1.00
42663;DHT22;44330;51.360;6.686;2022-11-02T08:15:58;13.10;1.00
42663;DHT22;44330;51.360;6.686;2022-11-02T08:18:25;13.10;1.00
42663;DHT22;44330;51.360;6.686;2022-11-02T08:20:51;13.10;1.00
42663;DHT22;44330;51.360;6.686;2022-11-02T08:23:19;13.10;1.00
42663;DHT22;44330;51.360;6.686;2022-11-02T08:25:47;13.20;1.00
42663;DHT22;44330;51.360;6.686;2022-11-02T08:28:15;13.30;1.00
42663;DHT22;44330;51.360;6.686;2022-11-02T08:30:42;13.40;1.00
42663;DHT22;44330;51.360;6.686;2022-11-02T08:33:10;13.50;1.00
42663;DHT22;44330;51.360;6.686;2022-11-02T08:35:38;13.70;1.00
42663;DHT22;44330;51.360;6.686;2022-11-02T08:38:04;13.80;1.00
42663;DHT22;44330;51.360;6.686;2022-11-02T08:40:31;14.00;1.00
42663;DHT22;44330;51.360;6.686;2022-11-02T08:43:01;14.20;1.00
42663;DHT22;44330;51.360;6.686;2022-11-02T08:45:28;14.40;1.00
42663;DHT22;44330;51.360;6.686;2022-11-02T08:47:55;14.40;1.00
42663;DHT22;44330;51.360;6.686;2022-11-02T08:50:21;14.40;1.00
42663;DHT22;44330;51.360;6.686;2022-11-02T08:52:46;14.40;1.00
42663;DHT22;44330;51.360;6.686;2022-11-02T08:55:12;14.40;1.00
42663;DHT22;44330;51.360;6.686;2022-11-02T08:57:52;14.40;1.00
42663;DHT22;44330;51.360;6.686;2022-11-02T09:00:20;14.50;1.00
42663;DHT22;44330;51.360;6.686;2022-11-02T09:03:04;14.70;1.00
42663;DHT22;44330;51.360;6.686;2022-11-02T09:05:31;15.00;99.90
42663;DHT22;44330;51.360;6.686;2022-11-02T09:07:59;15.00;99.90
42663;DHT22;44330;51.360;6.686;2022-11-02T09:10:27;14.80;99.90
42663;DHT22;44330;51.360;6.686;2022-11-02T09:12:53;14.50;99.90
42663;DHT22;44330;51.360;6.686;2022-11-02T09:15:19;14.40;1.00
42663;DHT22;44330;51.360;6.686;2022-11-02T09:17:49;14.30;1.00
42663;DHT22;44330;51.360;6.686;2022-11-02T09:20:16;14.40;1.00
42663;DHT22;44330;51.360;6.686;2022-11-02T09:22:42;14.40;1.00
42663;DHT22;44330;51.360;6.686;2022-11-02T09:25:08;14.40;1.00
42663;DHT22;44330;51.360;6.686;2022-11-02T09:27:34;14.30;1.00
42663;DHT22;44330;51.360;6.686;2022-11-02T09:29:59;14.50;1.00
42663;DHT22;44330;51.360;6.686;2022-11-02T09:32:25;14.80;99.90
42663;DHT22;44330;51.360;6.686;2022-11-02T09:34:51;14.80;99.90
42663;DHT22;44330;51.360;6.686;2022-11-02T09:37:16;14.70;99.90
42663;DHT22;44330;51.360;6.686;2022-11-02T09:39:42;14.60;99.90
42663;DHT22;44330;51.360;6.686;2022-11-02T09:42:24;14.50;99.90
42663;DHT22;44330;51.360;6.686;2022-11-02T09:45:00;14.40;99.90
42663;DHT22;44330;51.360;6.686;2022-11-02T09:47:28;14.40;1.00
42663;DHT22;44330;51.360;6.686;2022-11-02T09:49:55;14.70;99.90
42663;DHT22;44330;51.360;6.686;2022-11-02T09:52:36;14.60;99.90
42663;DHT22;44330;51.360;6.686;2022-11-02T09:55:05;14.50;99.90
42663;DHT22;44330;51.360;6.686;2022-11-02T09:57:35;14.80;99.90
42663;DHT22;44330;51.360;6.686;2022-11-02T10:00:03;14.90;99.90
42663;DHT22;44330;51.360;6.686;2022-11-02T10:02:58;15.00;99.90
42663;DHT22;44330;51.360;6.686;2022-11-02T10:08:36;15.30;60.20
42663;DHT22;44330;51.360;6.686;2022-11-02T10:11:28;15.30;1.00
42663;DHT22;44330;51.360;6.686;2022-11-02T10:14:24;15.10;99.90
42663;DHT22;44330;51.360;6.686;2022-11-02T10:19:40;15.20;99.90
42663;DHT22;44330;51.360;6.686;2022-11-02T10:22:09;15.40;99.90
42663;DHT22;44330;51.360;6.686;2022-11-02T10:24:41;15.80;99.90
42663;DHT22;44330;51.360;6.686;2022-11-02T10:27:24;16.00;99.90
42663;DHT22;44330;51.360;6.686;2022-11-02T10:32:25;16.20;99.90
42663;DHT22;44330;51.360;6.686;2022-11-02T10:34:51;16.20;99.90
42663;DHT22;44330;51.360;6.686;2022-11-02T10:37:36;16.40;99.90
42663;DHT22;44330;51.360;6.686;2022-11-02T10:40:11;16.60;99.90
42663;DHT22;44330;51.360;6.686;2022-11-02T10:45:40;17.10;96.00
42663;DHT22;44330;51.360;6.686;2022-11-02T10:48:20;17.20;99.90
42663;DHT22;44330;51.360;6.686;2022-11-02T10:50:59;17.10;99.90
42663;DHT22;44330;51.360;6.686;2022-11-02T10:53:43;17.10;99.90
42663;DHT22;44330;51.360;6.686;2022-11-02T10:56:16;17.10;99.90
42663;DHT22;44330;51.360;6.686;2022-11-02T10:58:59;17.20;99.90
42663;DHT22;44330;51.360;6.686;2022-11-02T11:01:27;17.20;76.40
42663;DHT22;44330;51.360;6.686;2022-11-02T11:04:05;17.10;1.00
42663;DHT22;44330;51.360;6.686;2022-11-02T11:06:39;17.20;99.90
42663;DHT22;44330;51.360;6.686;2022-11-02T11:11:41;17.10;99.90
42663;DHT22;44330;51.360;6.686;2022-11-02T11:14:17;17.20;99.90
42663;DHT22;44330;51.360;6.686;2022-11-02T11:16:48;17.30;6.20
42663;DHT22;44330;51.360;6.686;2022-11-02T11:19:31;17.30;1.00
42663;DHT22;44330;51.360;6.686;2022-11-02T11:21:58;17.20;1.00
42663;DHT22;44330;51.360;6.686;2022-11-02T11:27:14;17.00;1.00
42663;DHT22;44330;51.360;6.686;2022-11-02T11:29:54;17.10;36.30
42663;DHT22;44330;51.360;6.686;2022-11-02T11:32:25;17.10;1.00
42663;DHT22;44330;51.360;6.686;2022-11-02T11:34:57;17.00;99.90
42663;DHT22;44330;51.360;6.686;2022-11-02T11:37:24;16.90;99.90
42663;DHT22;44330;51.360;6.686;2022-11-02T11:39:54;16.80;49.90
42663;DHT22;44330;51.360;6.686;2022-11-02T11:42:24;16.90;99.90
42663;DHT22;44330;51.360;6.686;2022-11-02T11:45:17;17.00;99.90
42663;DHT22;44330;51.360;6.686;2022-11-02T11:47:44;16.90;1.00
42663;DHT22;44330;51.360;6.686;2022-11-02T11:50:16;16.80;99.90
42663;DHT22;44330;51.360;6.686;2022-11-02T11:52:42;16.90;99.90
42663;DHT22;44330;51.360;6.686;2022-11-02T11:55:27;16.90;99.90
42663;DHT22;44330;51.360;6.686;2022-11-02T11:58:20;16.80;99.90
42663;DHT22;44330;51.360;6.686;2022-11-02T12:01:13;16.70;1.00
42663;DHT22;44330;51.360;6.686;2022-11-02T12:09:31;16.60;1.00
42663;DHT22;44330;51.360;6.686;2022-11-02T12:12:05;16.70;99.90
42663;DHT22;44330;51.360;6.686;2022-11-02T12:21:03;16.50;99.90
42663;DHT22;44330;51.360;6.686;2022-11-02T12:24:46;16.30;59.20
42663;DHT22;44330;51.360;6.686;2022-11-02T12:26:58;16.20;99.90
42663;DHT22;44330;51.360;6.686;2022-11-02T12:30:02;16.00;99.90
42663;DHT22;44330;51.360;6.686;2022-11-02T12:35:26;16.30;99.90
42663;DHT22;44330;51.360;6.686;2022-11-02T12:40:40;16.40;99.90
42663;DHT22;44330;51.360;6.686;2022-11-02T12:46:01;16.60;99.70
42663;DHT22;44330;51.360;6.686;2022-11-02T12:48:51;16.60;1.00
42663;DHT22;44330;51.360;6.686;2022-11-02T12:51:25;16.80;99.90
42663;DHT22;44330;51.360;6.686;2022-11-02T12:53:58;16.90;99.30
42663;DHT22;44330;51.360;6.686;2022-11-02T12:56:41;17.00;64.40
42663;DHT22;44330;51.360;6.686;2022-11-02T12:59:25;16.80;99.90
42663;DHT22;44330;51.360;6.686;2022-11-02T13:01:55;16.70;99.90
42663;DHT22;44330;51.360;6.686;2022-11-02T13:04:26;16.60;99.90
42663;DHT22;44330;51.360;6.686;2022-11-02T13:07:08;16.40;99.90
42663;DHT22;44330;51.360;6.686;2022-11-02T13:10:12;16.40;1.00
42663;DHT22;44330;51.360;6.686;2022-11-02T13:12:41;16.20;99.90
42663;DHT22;44330;51.360;6.686;2022-11-02T13:15:16;16.30;99.90
42663;DHT22;44330;51.360;6.686;2022-11-02T13:17:46;16.30;99.90
42663;DHT22;44330;51.360;6.686;2022-11-02T13:20:23;16.40;15.90
42663;DHT22;44330;51.360;6.686;2022-11-02T13:23:06;16.30;99.90
42663;DHT22;44330;51.360;6.686;2022-11-02T13:25:51;16.40;99.90
42663;DHT22;44330;51.360;6.686;2022-11-02T13:28:44;16.30;99.90
42663;DHT22;44330;51.360;6.686;2022-11-02T13:33:51;16.10;99.90
42663;DHT22;44330;51.360;6.686;2022-11-02T13:36:18;16.30;99.90
42663;DHT22;44330;51.360;6.686;2022-11-02T13:38:58;16.40;99.90
42663;DHT22;44330;51.360;6.686;2022-11-02T13:42:00;16.40;99.90
42663;DHT22;44330;51.360;6.686;2022-11-02T13:50:02;16.50;99.90
42663;DHT22;44330;51.360;6.686;2022-11-02T13:52:47;16.70;1.00
42663;DHT22;44330;51.360;6.686;2022-11-02T13:55:22;16.80;99.90
42663;DHT22;44330;51.360;6.686;2022-11-02T13:57:56;16.80;99.90
42663;DHT22;44330;51.360;6.686;2022-11-02T14:02:54;16.70;1.00
42663;DHT22;44330;51.360;6.686;2022-11-02T14:05:34;16.60;1.00
42663;DHT22;44330;51.360;6.686;2022-11-02T14:08:14;16.50;99.90
42663;DHT22;44330;51.360;6.686;2022-11-02T14:10:40;16.50;99.90
42663;DHT22;44330;51.360;6.686;2022-11-02T14:13:15;16.50;99.90
42663;DHT22;44330;51.360;6.686;2022-11-02T14:15:42;16.40;77.20
42663;DHT22;44330;51.360;6.686;2022-11-02T14:25:48;16.60;99.90
42663;DHT22;44330;51.360;6.686;2022-11-02T14:42:37;16.00;99.90
42663;DHT22;44330;51.360;6.686;2022-11-02T14:45:19;15.90;1.00
42663;DHT22;44330;51.360;6.686;2022-11-02T14:47:47;15.80;99.40
42663;DHT22;44330;51.360;6.686;2022-11-02T14:50:20;15.80;99.90
42663;DHT22;44330;51.360;6.686;2022-11-02T14:53:02;15.90;96.60
42663;DHT22;44330;51.360;6.686;2022-11-02T14:55:31;15.90;99.90
42663;DHT22;44330;51.360;6.686;2022-11-02T14:58:06;15.90;1.00
42663;DHT22;44330;51.360;6.686;2022-11-02T15:00:37;16.00;99.90
42663;DHT22;44330;51.360;6.686;2022-11-02T15:03:05;16.00;97.80
42663;DHT22;44330;51.360;6.686;2022-11-02T15:05:36;15.90;1.00
42663;DHT22;44330;51.360;6.686;2022-11-02T15:08:26;15.80;99.90
42663;DHT22;44330;51.360;6.686;2022-11-02T15:10:56;15.70;1.00
42663;DHT22;44330;51.360;6.686;2022-11-02T15:13:33;15.60;99.90
42663;DHT22;44330;51.360;6.686;2022-11-02T15:18:34;15.30;99.90
42663;DHT22;44330;51.360;6.686;2022-11-02T15:23:52;15.10;1.00
42663;DHT22;44330;51.360;6.686;2022-11-02T15:26:30;15.00;99.90
42663;DHT22;44330;51.360;6.686;2022-11-02T15:29:02;14.90;99.90
42663;DHT22;44330;51.360;6.686;2022-11-02T15:31:29;14.80;99.90
42663;DHT22;44330;51.360;6.686;2022-11-02T15:34:01;14.70;7.60
42663;DHT22;44330;51.360;6.686;2022-11-02T15:36:34;14.60;45.90
42663;DHT22;44330;51.360;6.686;2022-11-02T15:39:04;14.50;99.90
42663;DHT22;44330;51.360;6.686;2022-11-02T15:47:07;14.20;99.90
42663;DHT22;44330;51.360;6.686;2022-11-02T15:55:59;14.10;99.90
42663;DHT22;44330;51.360;6.686;2022-11-02T15:58:41;14.10;99.90
42663;DHT22;44330;51.360;6.686;2022-11-02T16:01:25;13.90;99.90
42663;DHT22;44330;51.360;6.686;2022-11-02T16:04:00;13.80;99.90
42663;DHT22;44330;51.360;6.686;2022-11-02T16:06:29;13.80;99.90
42663;DHT22;44330;51.360;6.686;2022-11-02T16:08:58;13.70;99.90
42663;DHT22;44330;51.360;6.686;2022-11-02T16:11:24;13.60;99.90
42663;DHT22;44330;51.360;6.686;2022-11-02T16:13:50;13.50;99.90
42663;DHT22;44330;51.360;6.686;2022-11-02T16:16:19;13.50;99.90
42663;DHT22;44330;51.360;6.686;2022-11-02T16:18:49;13.50;99.90
42663;DHT22;44330;51.360;6.686;2022-11-02T16:21:18;13.50;99.90
42663;DHT22;44330;51.360;6.686;2022-11-02T16:23:49;13.50;99.90
42663;DHT22;44330;51.360;6.686;2022-11-02T16:26:19;13.50;99.90
42663;DHT22;44330;51.360;6.686;2022-11-02T16:28:51;13.40;99.90
42663;DHT22;44330;51.360;6.686;2022-11-02T16:31:24;13.30;99.90
42663;DHT22;44330;51.360;6.686;2022-11-02T16:33:57;13.20;99.90
42663;DHT22;44330;51.360;6.686;2022-11-02T16:36:28;13.20;99.90
42663;DHT22;44330;51.360;6.686;2022-11-02T16:39:12;13.00;99.90
42663;DHT22;44330;51.360;6.686;2022-11-02T16:41:39;12.90;1.00
42663;DHT22;44330;51.360;6.686;2022-11-02T16:44:26;12.80;1.00
42663;DHT22;44330;51.360;6.686;2022-11-02T16:46:59;12.80;1.00
42663;DHT22;44330;51.360;6.686;2022-11-02T16:49:27;12.70;1.00
42663;DHT22;44330;51.360;6.686;2022-11-02T16:51:54;12.70;1.00
42663;DHT22;44330;51.360;6.686;2022-11-02T16:56:52;12.60;1.00
42663;DHT22;44330;51.360;6.686;2022-11-02T16:59:19;12.60;1.00
42663;DHT22;44330;51.360;6.686;2022-11-02T17:01:45;12.60;1.00
42663;DHT22;44330;51.360;6.686;2022-11-02T17:04:21;12.60;1.00
42663;DHT22;44330;51.360;6.686;2022-11-02T17:06:50;12.50;1.00
42663;DHT22;44330;51.360;6.686;2022-11-02T17:09:29;12.30;1.00
42663;DHT22;44330;51.360;6.686;2022-11-02T17:11:57;12.20;1.00
42663;DHT22;44330;51.360;6.686;2022-11-02T17:14:24;12.20;1.00
42663;DHT22;44330;51.360;6.686;2022-11-02T17:17:06;12.20;1.00
42663;DHT22;44330;51.360;6.686;2022-11-02T17:22:11;12.10;1.00
42663;DHT22;44330;51.360;6.686;2022-11-02T17:24:37;12.00;1.00
42663;DHT22;44330;51.360;6.686;2022-11-02T17:27:26;11.90;1.00
42663;DHT22;44330;51.360;6.686;2022-11-02T17:29:53;11.90;1.00
42663;DHT22;44330;51.360;6.686;2022-11-02T17:32:20;11.90;1.00
42663;DHT22;44330;51.360;6.686;2022-11-02T17:34:49;11.80;1.00
42663;DHT22;44330;51.360;6.686;2022-11-02T17:37:27;11.90;1.00
42663;DHT22;44330;51.360;6.686;2022-11-02T17:39:54;11.90;1.00
42663;DHT22;44330;51.360;6.686;2022-11-02T17:42:21;11.90;1.00
42663;DHT22;44330;51.360;6.686;2022-11-02T17:45:28;11.90;1.00
42663;DHT22;44330;51.360;6.686;2022-11-02T17:47:56;11.90;1.00
42663;DHT22;44330;51.360;6.686;2022-11-02T17:50:22;12.00;1.00
42663;DHT22;44330;51.360;6.686;2022-11-02T17:52:48;12.10;1.00
42663;DHT22;44330;51.360;6.686;2022-11-02T17:55:18;12.10;1.00